sensor_id;sensor_type;location;lat;lon;timestamp;temperature;humidity
3312;DHT22;1668;49.648;8.570;2022-12-18T00:00:49;-6.70;99.90
3312;DHT22;1668;49.648;8.570;2022-12-18T00:03:16;-6.70;99.90
3312;DHT22;1668;49.648;8.570;2022-12-18T00:05:47;-6.80;99.90
3312;DHT22;1668;49.648;8.570;2022-12-18T00:08:14;-6.70;99.90
3312;DHT22;1668;49.648;8.570;2022-12-18T00:10:41;-6.70;99.90
3312;DHT22;1668;49.648;8.570;2022-12-18T00:13:09;-6.70;99.90
3312;DHT22;1668;49.648;8.570;2022-12-18T00:15:38;-6.70;99.90
3312;DHT22;1668;49.648;8.570;2022-12-18T00:18:05;-6.80;99.90
3312;DHT22;1668;49.648;8.570;2022-12-18T00:20:36;-6.70;99.90
3312;DHT22;1668;49.648;8.570;2022-12-18T00:23:03;-6.80;99.90
3312;DHT22;1668;49.648;8.570;2022-12-18T00:25:32;-6.80;99.90
3312;DHT22;1668;49.648;8.570;2022-12-18T00:27:59;-6.80;99.90
3312;DHT22;1668;49.648;8.570;2022-12-18T00:30:28;-6.90;99.90
3312;DHT22;1668;49.648;8.570;2022-12-18T00:32:54;-6.80;99.90
3312;DHT22;1668;49.648;8.570;2022-12-18T00:35:22;-6.80;99.90
3312;DHT22;1668;49.648;8.570;2022-12-18T00:37:49;-6.80;99.90
3312;DHT22;1668;49.648;8.570;2022-12-18T00:40:16;-6.80;99.90
3312;DHT22;1668;49.648;8.570;2022-12-18T00:42:42;-6.80;99.90
3312;DHT22;1668;49.648;8.570;2022-12-18T00:45:29;-6.90;99.90
3312;DHT22;1668;49.648;8.570;2022-12-18T00:47:57;-6.90;99.90
3312;DHT22;1668;49.648;8.570;2022-12-18T00:50:24;-6.80;99.90
3312;DHT22;1668;49.648;8.570;2022-12-18T00:52:52;-6.90;99.90
3312;DHT22;1668;49.648;8.570;2022-12-18T00:55:19;-6.90;99.90
3312;DHT22;1668;49.648;8.570;2022-12-18T00:57:46;-6.80;99.90
3312;DHT22;1668;49.648;8.570;2022-12-18T01:00:14;-6.90;99.90
3312;DHT22;1668;49.648;8.570;2022-12-18T01:02:43;-6.90;99.90
3312;DHT22;1668;49.648;8.570;2022-12-18T01:05:11;-6.80;99.90
3312;DHT22;1668;49.648;8.570;2022-12-18T01:07:38;-6.80;99.90
3312;DHT22;1668;49.648;8.570;2022-12-18T01:10:06;-6.90;99.90
3312;DHT22;1668;49.648;8.570;2022-12-18T01:12:34;-6.90;99.90
3312;DHT22;1668;49.648;8.570;2022-12-18T01:15:01;-6.90;99.90
3312;DHT22;1668;49.648;8.570;2022-12-18T01:17:27;-6.90;99.90
3312;DHT22;1668;49.648;8.570;2022-12-18T01:19:55;-6.90;99.90
3312;DHT22;1668;49.648;8.570;2022-12-18T01:22:22;-6.90;99.90
3312;DHT22;1668;49.648;8.570;2022-12-18T01:24:50;-6.90;99.90
3312;DHT22;1668;49.648;8.570;2022-12-18T01:27:17;-7.00;99.90
3312;DHT22;1668;49.648;8.570;2022-12-18T01:29:43;-7.00;99.90
3312;DHT22;1668;49.648;8.570;2022-12-18T01:32:10;-7.00;99.90
3312;DHT22;1668;49.648;8.570;2022-12-18T01:34:37;-7.00;99.90
3312;DHT22;1668;49.648;8.570;2022-12-18T01:37:06;-7.10;99.90
3312;DHT22;1668;49.648;8.570;2022-12-18T01:39:33;-7.10;99.90
3312;DHT22;1668;49.648;8.570;2022-12-18T01:42:00;-7.10;99.90
3312;DHT22;1668;49.648;8.570;2022-12-18T01:44:53;-7.20;99.90
3312;DHT22;1668;49.648;8.570;2022-12-18T01:47:24;-7.20;99.90
3312;DHT22;1668;49.648;8.570;2022-12-18T01:49:51;-7.10;99.90
3312;DHT22;1668;49.648;8.570;2022-12-18T01:52:20;-7.20;99.90
3312;DHT22;1668;49.648;8.570;2022-12-18T01:54:49;-7.20;99.90
3312;DHT22;1668;49.648;8.570;2022-12-18T01:57:16;-7.20;99.90
3312;DHT22;1668;49.648;8.570;2022-12-18T01:59:45;-7.20;99.90
3312;DHT22;1668;49.648;8.570;2022-12-18T02:02:14;-7.30;99.90
3312;DHT22;1668;49.648;8.570;2022-12-18T02:04:42;-7.30;99.90
3312;DHT22;1668;49.648;8.570;2022-12-18T02:07:16;-7.20;99.90
3312;DHT22;1668;49.648;8.570;2022-12-18T02:09:48;-7.20;99.90
3312;DHT22;1668;49.648;8.570;2022-12-18T02:12:19;-7.30;99.90
3312;DHT22;1668;49.648;8.570;2022-12-18T02:14:52;-7.30;99.90
3312;DHT22;1668;49.648;8.570;2022-12-18T02:17:22;-7.30;99.90
3312;DHT22;1668;49.648;8.570;2022-12-18T02:20:01;-7.30;99.90
3312;DHT22;1668;49.648;8.570;2022-12-18T02:22:38;-7.30;99.90
3312;DHT22;1668;49.648;8.570;2022-12-18T02:25:22;-7.30;99.90
3312;DHT22;1668;49.648;8.570;2022-12-18T02:27:54;-7.30;99.90
3312;DHT22;1668;49.648;8.570;2022-12-18T02:30:26;-7.30;99.90
3312;DHT22;1668;49.648;8.570;2022-12-18T02:32:54;-7.30;99.90
3312;DHT22;1668;49.648;8.570;2022-12-18T02:35:23;-7.30;99.90
3312;DHT22;1668;49.648;8.570;2022-12-18T02:37:54;-7.20;99.90
3312;DHT22;1668;49.648;8.570;2022-12-18T02:40:23;-7.20;99.90
3312;DHT22;1668;49.648;8.570;2022-12-18T02:42:50;-7.20;99.90
3312;DHT22;1668;49.648;8.570;2022-12-18T02:45:19;-7.20;99.90
3312;DHT22;1668;49.648;8.570;2022-12-18T02:47:48;-7.20;99.90
3312;DHT22;1668;49.648;8.570;2022-12-18T02:50:19;-7.30;99.90
3312;DHT22;1668;49.648;8.570;2022-12-18T02:52:54;-7.30;99.90
3312;DHT22;1668;49.648;8.570;2022-12-18T02:55:32;-7.30;99.90
3312;DHT22;1668;49.648;8.570;2022-12-18T02:58:05;-7.40;99.90
3312;DHT22;1668;49.648;8.570;2022-12-18T03:00:40;-7.40;99.90
3312;DHT22;1668;49.648;8.570;2022-12-18T03:03:11;-7.40;99.90
3312;DHT22;1668;49.648;8.570;2022-12-18T03:05:45;-7.40;99.90
3312;DHT22;1668;49.648;8.570;2022-12-18T03:08:17;-7.40;99.90
3312;DHT22;1668;49.648;8.570;2022-12-18T03:10:49;-7.40;99.90
3312;DHT22;1668;49.648;8.570;2022-12-18T03:13:19;-7.40;99.90
3312;DHT22;1668;49.648;8.570;2022-12-18T03:15:50;-7.50;99.90
3312;DHT22;1668;49.648;8.570;2022-12-18T03:18:22;-7.40;99.90
3312;DHT22;1668;49.648;8.570;2022-12-18T03:20:52;-7.40;99.90
3312;DHT22;1668;49.648;8.570;2022-12-18T03:23:23;-7.50;99.90
3312;DHT22;1668;49.648;8.570;2022-12-18T03:25:54;-7.50;99.90
3312;DHT22;1668;49.648;8.570;2022-12-18T03:28:23;-7.50;99.90
3312;DHT22;1668;49.648;8.570;2022-12-18T03:30:53;-7.50;99.90
3312;DHT22;1668;49.648;8.570;2022-12-18T03:33:25;-7.40;99.90
3312;DHT22;1668;49.648;8.570;2022-12-18T03:35:52;-7.50;99.90
3312;DHT22;1668;49.648;8.570;2022-12-18T03:38:19;-7.40;99.90
3312;DHT22;1668;49.648;8.570;2022-12-18T03:40:53;-7.50;99.90
3312;DHT22;1668;49.648;8.570;2022-12-18T03:43:30;-7.50;99.90
3312;DHT22;1668;49.648;8.570;2022-12-18T03:46:07;-7.50;99.90
3312;DHT22;1668;49.648;8.570;2022-12-18T03:48:41;-7.60;99.90
3312;DHT22;1668;49.648;8.570;2022-12-18T03:51:11;-7.60;99.90
3312;DHT22;1668;49.648;8.570;2022-12-18T03:53:44;-7.60;99.90
3312;DHT22;1668;49.648;8.570;2022-12-18T03:56:16;-7.60;99.90
3312;DHT22;1668;49.648;8.570;2022-12-18T03:58:43;-7.50;99.90
3312;DHT22;1668;49.648;8.570;2022-12-18T04:01:15;-7.60;99.90
3312;DHT22;1668;49.648;8.570;2022-12-18T04:03:43;-7.60;99.90
3312;DHT22;1668;49.648;8.570;2022-12-18T04:06:12;-7.60;99.90
3312;DHT22;1668;49.648;8.570;2022-12-18T04:08:41;-7.60;99.90
3312;DHT22;1668;49.648;8.570;2022-12-18T04:11:08;-7.60;99.90
3312;DHT22;1668;49.648;8.570;2022-12-18T04:13:36;-7.50;99.90
3312;DHT22;1668;49.648;8.570;2022-12-18T04:16:04;-7.60;99.90
3312;DHT22;1668;49.648;8.570;2022-12-18T04:18:32;-7.60;99.90
3312;DHT22;1668;49.648;8.570;2022-12-18T04:20:59;-7.60;99.90
3312;DHT22;1668;49.648;8.570;2022-12-18T04:23:26;-7.60;99.90
3312;DHT22;1668;49.648;8.570;2022-12-18T04:25:53;-7.60;99.90
3312;DHT22;1668;49.648;8.570;2022-12-18T04:28:20;-7.50;99.90
3312;DHT22;1668;49.648;8.570;2022-12-18T04:30:50;-7.60;99.90
3312;DHT22;1668;49.648;8.570;2022-12-18T04:33:18;-7.60;99.90
3312;DHT22;1668;49.648;8.570;2022-12-18T04:35:46;-7.60;99.90
3312;DHT22;1668;49.648;8.570;2022-12-18T04:38:13;-7.60;99.90
3312;DHT22;1668;49.648;8.570;2022-12-18T04:40:41;-7.60;99.90
3312;DHT22;1668;49.648;8.570;2022-12-18T04:43:07;-7.60;99.90
3312;DHT22;1668;49.648;8.570;2022-12-18T04:45:34;-7.60;99.90
3312;DHT22;1668;49.648;8.570;2022-12-18T04:48:02;-7.50;99.90
3312;DHT22;1668;49.648;8.570;2022-12-18T04:50:30;-7.50;99.90
3312;DHT22;1668;49.648;8.570;2022-12-18T04:52:58;-7.60;99.90
3312;DHT22;1668;49.648;8.570;2022-12-18T04:55:25;-7.60;99.90
3312;DHT22;1668;49.648;8.570;2022-12-18T04:57:52;-7.60;99.90
3312;DHT22;1668;49.648;8.570;2022-12-18T05:00:19;-7.60;99.90
3312;DHT22;1668;49.648;8.570;2022-12-18T05:02:46;-7.50;99.90
3312;DHT22;1668;49.648;8.570;2022-12-18T05:05:13;-7.60;99.90
3312;DHT22;1668;49.648;8.570;2022-12-18T05:07:40;-7.50;99.90
3312;DHT22;1668;49.648;8.570;2022-12-18T05:10:08;-7.60;99.90
3312;DHT22;1668;49.648;8.570;2022-12-18T05:12:35;-7.60;99.90
3312;DHT22;1668;49.648;8.570;2022-12-18T05:15:24;-7.60;99.90
3312;DHT22;1668;49.648;8.570;2022-12-18T05:17:50;-7.60;99.90
3312;DHT22;1668;49.648;8.570;2022-12-18T05:20:17;-7.50;99.90
3312;DHT22;1668;49.648;8.570;2022-12-18T05:22:44;-7.50;99.90
3312;DHT22;1668;49.648;8.570;2022-12-18T05:25:12;-7.60;99.90
3312;DHT22;1668;49.648;8.570;2022-12-18T05:27:39;-7.60;99.90
3312;DHT22;1668;49.648;8.570;2022-12-18T05:30:07;-7.70;99.90
3312;DHT22;1668;49.648;8.570;2022-12-18T05:32:34;-7.70;99.90
3312;DHT22;1668;49.648;8.570;2022-12-18T05:35:01;-7.60;99.90
3312;DHT22;1668;49.648;8.570;2022-12-18T05:37:28;-7.60;99.90
3312;DHT22;1668;49.648;8.570;2022-12-18T05:39:55;-7.60;99.90
3312;DHT22;1668;49.648;8.570;2022-12-18T05:42:23;-7.70;99.90
3312;DHT22;1668;49.648;8.570;2022-12-18T05:44:49;-7.70;99.90
3312;DHT22;1668;49.648;8.570;2022-12-18T05:47:16;-7.70;99.90
3312;DHT22;1668;49.648;8.570;2022-12-18T05:49:43;-7.70;99.90
3312;DHT22;1668;49.648;8.570;2022-12-18T05:52:10;-7.60;99.90
3312;DHT22;1668;49.648;8.570;2022-12-18T05:54:37;-7.60;99.90
3312;DHT22;1668;49.648;8.570;2022-12-18T05:57:04;-7.60;99.90
3312;DHT22;1668;49.648;8.570;2022-12-18T05:59:32;-7.60;99.90
3312;DHT22;1668;49.648;8.570;2022-12-18T06:01:59;-7.60;99.90
3312;DHT22;1668;49.648;8.570;2022-12-18T06:04:26;-7.70;99.90
3312;DHT22;1668;49.648;8.570;2022-12-18T06:06:57;-7.70;99.90
3312;DHT22;1668;49.648;8.570;2022-12-18T06:09:24;-7.70;99.90
3312;DHT22;1668;49.648;8.570;2022-12-18T06:11:51;-7.70;99.90
3312;DHT22;1668;49.648;8.570;2022-12-18T06:14:19;-7.70;99.90
3312;DHT22;1668;49.648;8.570;2022-12-18T06:16:47;-7.60;99.90
3312;DHT22;1668;49.648;8.570;2022-12-18T06:19:16;-7.60;99.90
3312;DHT22;1668;49.648;8.570;2022-12-18T06:21:43;-7.60;99.90
3312;DHT22;1668;49.648;8.570;2022-12-18T06:24:09;-7.70;99.90
3312;DHT22;1668;49.648;8.570;2022-12-18T06:26:37;-7.70;99.90
3312;DHT22;1668;49.648;8.570;2022-12-18T06:29:04;-7.70;99.90
3312;DHT22;1668;49.648;8.570;2022-12-18T06:31:31;-7.60;99.90
3312;DHT22;1668;49.648;8.570;2022-12-18T06:34:02;-7.60;99.90
3312;DHT22;1668;49.648;8.570;2022-12-18T06:36:32;-7.60;99.90
3312;DHT22;1668;49.648;8.570;2022-12-18T06:38:59;-7.60;99.90
3312;DHT22;1668;49.648;8.570;2022-12-18T06:41:26;-7.60;99.90
3312;DHT22;1668;49.648;8.570;2022-12-18T06:43:53;-7.60;99.90
3312;DHT22;1668;49.648;8.570;2022-12-18T06:46:19;-7.60;99.90
3312;DHT22;1668;49.648;8.570;2022-12-18T06:48:47;-7.60;99.90
3312;DHT22;1668;49.648;8.570;2022-12-18T06:51:18;-7.60;99.90
3312;DHT22;1668;49.648;8.570;2022-12-18T06:53:45;-7.60;99.90
3312;DHT22;1668;49.648;8.570;2022-12-18T06:56:12;-7.60;99.90
3312;DHT22;1668;49.648;8.570;2022-12-18T06:58:39;-7.60;99.90
3312;DHT22;1668;49.648;8.570;2022-12-18T07:01:08;-7.60;99.90
3312;DHT22;1668;49.648;8.570;2022-12-18T07:03:35;-7.60;99.90
3312;DHT22;1668;49.648;8.570;2022-12-18T07:06:02;-7.60;99.90
3312;DHT22;1668;49.648;8.570;2022-12-18T07:08:30;-7.70;99.90
3312;DHT22;1668;49.648;8.570;2022-12-18T07:10:58;-7.60;99.90
3312;DHT22;1668;49.648;8.570;2022-12-18T07:13:25;-7.60;99.90
3312;DHT22;1668;49.648;8.570;2022-12-18T07:15:52;-7.60;99.90
3312;DHT22;1668;49.648;8.570;2022-12-18T07:18:19;-7.60;99.90
3312;DHT22;1668;49.648;8.570;2022-12-18T07:20:46;-7.60;99.90
3312;DHT22;1668;49.648;8.570;2022-12-18T07:23:13;-7.60;99.90
3312;DHT22;1668;49.648;8.570;2022-12-18T07:25:41;-7.60;99.90
3312;DHT22;1668;49.648;8.570;2022-12-18T07:28:08;-7.60;99.90
3312;DHT22;1668;49.648;8.570;2022-12-18T07:30:37;-7.60;99.90
3312;DHT22;1668;49.648;8.570;2022-12-18T07:33:04;-7.60;99.90
3312;DHT22;1668;49.648;8.570;2022-12-18T07:35:32;-7.60;99.90
3312;DHT22;1668;49.648;8.570;2022-12-18T07:38:02;-7.50;99.90
3312;DHT22;1668;49.648;8.570;2022-12-18T07:40:29;-7.60;99.90
3312;DHT22;1668;49.648;8.570;2022-12-18T07:42:57;-7.60;99.90
3312;DHT22;1668;49.648;8.570;2022-12-18T07:45:24;-7.60;99.90
3312;DHT22;1668;49.648;8.570;2022-12-18T07:47:51;-7.60;99.90
3312;DHT22;1668;49.648;8.570;2022-12-18T07:50:18;-7.60;99.90
3312;DHT22;1668;49.648;8.570;2022-12-18T07:52:45;-7.50;99.90
3312;DHT22;1668;49.648;8.570;2022-12-18T07:55:12;-7.50;99.90
3312;DHT22;1668;49.648;8.570;2022-12-18T07:57:38;-7.60;99.90
3312;DHT22;1668;49.648;8.570;2022-12-18T08:00:08;-7.50;99.90
3312;DHT22;1668;49.648;8.570;2022-12-18T08:02:35;-7.50;99.90
3312;DHT22;1668;49.648;8.570;2022-12-18T08:05:02;-7.50;99.90
3312;DHT22;1668;49.648;8.570;2022-12-18T08:07:29;-7.50;99.90
3312;DHT22;1668;49.648;8.570;2022-12-18T08:09:56;-7.50;99.90
3312;DHT22;1668;49.648;8.570;2022-12-18T08:12:22;-7.50;99.90
3312;DHT22;1668;49.648;8.570;2022-12-18T08:14:49;-7.50;99.90
3312;DHT22;1668;49.648;8.570;2022-12-18T08:17:19;-7.50;99.90
3312;DHT22;1668;49.648;8.570;2022-12-18T08:19:46;-7.50;99.90
3312;DHT22;1668;49.648;8.570;2022-12-18T08:22:13;-7.40;99.90
3312;DHT22;1668;49.648;8.570;2022-12-18T08:24:40;-7.40;99.90
3312;DHT22;1668;49.648;8.570;2022-12-18T08:27:07;-7.40;99.90
3312;DHT22;1668;49.648;8.570;2022-12-18T08:29:34;-7.40;99.90
3312;DHT22;1668;49.648;8.570;2022-12-18T08:32:01;-7.40;99.90
3312;DHT22;1668;49.648;8.570;2022-12-18T08:34:29;-7.40;99.90
3312;DHT22;1668;49.648;8.570;2022-12-18T08:36:56;-7.40;99.90
3312;DHT22;1668;49.648;8.570;2022-12-18T08:39:22;-7.40;99.90
3312;DHT22;1668;49.648;8.570;2022-12-18T08:41:49;-7.40;99.90
3312;DHT22;1668;49.648;8.570;2022-12-18T08:44:30;-7.40;99.90
3312;DHT22;1668;49.648;8.570;2022-12-18T08:47:06;-7.40;99.90
3312;DHT22;1668;49.648;8.570;2022-12-18T08:49:35;-7.30;99.90
3312;DHT22;1668;49.648;8.570;2022-12-18T08:52:01;-7.40;99.90
3312;DHT22;1668;49.648;8.570;2022-12-18T08:54:29;-7.40;99.90
3312;DHT22;1668;49.648;8.570;2022-12-18T08:56:56;-7.30;99.90
3312;DHT22;1668;49.648;8.570;2022-12-18T08:59:22;-7.20;99.90
3312;DHT22;1668;49.648;8.570;2022-12-18T09:01:50;-7.20;99.90
3312;DHT22;1668;49.648;8.570;2022-12-18T09:04:16;-7.20;99.90
3312;DHT22;1668;49.648;8.570;2022-12-18T09:06:44;-7.20;99.90
3312;DHT22;1668;49.648;8.570;2022-12-18T09:09:11;-7.20;99.90
3312;DHT22;1668;49.648;8.570;2022-12-18T09:11:38;-7.20;99.90
3312;DHT22;1668;49.648;8.570;2022-12-18T09:14:05;-7.10;99.90
3312;DHT22;1668;49.648;8.570;2022-12-18T09:16:33;-7.10;99.90
3312;DHT22;1668;49.648;8.570;2022-12-18T09:19:01;-7.00;99.90
3312;DHT22;1668;49.648;8.570;2022-12-18T09:21:29;-6.90;99.90
3312;DHT22;1668;49.648;8.570;2022-12-18T09:23:58;-7.00;99.90
3312;DHT22;1668;49.648;8.570;2022-12-18T09:26:26;-6.90;99.90
3312;DHT22;1668;49.648;8.570;2022-12-18T09:28:53;-6.90;99.90
3312;DHT22;1668;49.648;8.570;2022-12-18T09:31:22;-6.90;99.90
3312;DHT22;1668;49.648;8.570;2022-12-18T09:33:49;-6.80;99.90
3312;DHT22;1668;49.648;8.570;2022-12-18T09:36:17;-6.80;99.90
3312;DHT22;1668;49.648;8.570;2022-12-18T09:38:45;-7.00;99.90
3312;DHT22;1668;49.648;8.570;2022-12-18T09:41:33;-7.00;99.90
3312;DHT22;1668;49.648;8.570;2022-12-18T09:44:11;-6.90;99.90
3312;DHT22;1668;49.648;8.570;2022-12-18T09:46:45;-6.90;99.90
3312;DHT22;1668;49.648;8.570;2022-12-18T09:49:14;-6.80;99.90
3312;DHT22;1668;49.648;8.570;2022-12-18T09:51:46;-6.80;99.90
3312;DHT22;1668;49.648;8.570;2022-12-18T09:54:18;-6.70;99.90
3312;DHT22;1668;49.648;8.570;2022-12-18T09:56:48;-6.70;99.90
3312;DHT22;1668;49.648;8.570;2022-12-18T09:59:21;-6.70;99.90
3312;DHT22;1668;49.648;8.570;2022-12-18T10:01:49;-6.70;99.90
3312;DHT22;1668;49.648;8.570;2022-12-18T10:04:15;-6.70;99.90
3312;DHT22;1668;49.648;8.570;2022-12-18T10:06:45;-6.70;99.90
3312;DHT22;1668;49.648;8.570;2022-12-18T10:09:19;-6.60;99.90
3312;DHT22;1668;49.648;8.570;2022-12-18T10:11:53;-6.60;99.90
3312;DHT22;1668;49.648;8.570;2022-12-18T10:14:30;-6.70;99.90
3312;DHT22;1668;49.648;8.570;2022-12-18T10:17:07;-6.50;99.90
3312;DHT22;1668;49.648;8.570;2022-12-18T10:19:43;-6.40;99.90
3312;DHT22;1668;49.648;8.570;2022-12-18T10:25:13;-6.10;99.90
3312;DHT22;1668;49.648;8.570;2022-12-18T10:27:43;-6.00;99.90
3312;DHT22;1668;49.648;8.570;2022-12-18T10:30:13;-5.90;99.90
3312;DHT22;1668;49.648;8.570;2022-12-18T10:32:41;-5.80;99.90
3312;DHT22;1668;49.648;8.570;2022-12-18T10:35:15;-5.60;99.90
3312;DHT22;1668;49.648;8.570;2022-12-18T10:37:59;-5.60;99.90
3312;DHT22;1668;49.648;8.570;2022-12-18T10:40:26;-5.50;99.90
3312;DHT22;1668;49.648;8.570;2022-12-18T10:43:05;-5.40;99.90
3312;DHT22;1668;49.648;8.570;2022-12-18T10:45:32;-5.40;99.90
3312;DHT22;1668;49.648;8.570;2022-12-18T10:48:00;-5.40;84.20
3312;DHT22;1668;49.648;8.570;2022-12-18T10:50:30;-5.40;82.10
3312;DHT22;1668;49.648;8.570;2022-12-18T10:52:59;-5.40;78.30
3312;DHT22;1668;49.648;8.570;2022-12-18T10:55:31;-5.20;82.80
3312;DHT22;1668;49.648;8.570;2022-12-18T10:58:16;-5.30;49.00
3312;DHT22;1668;49.648;8.570;2022-12-18T11:00:43;-5.30;22.20
3312;DHT22;1668;49.648;8.570;2022-12-18T11:03:31;-5.30;25.10
3312;DHT22;1668;49.648;8.570;2022-12-18T11:06:03;-5.10;49.60
3312;DHT22;1668;49.648;8.570;2022-12-18T11:08:30;-5.10;23.90
3312;DHT22;1668;49.648;8.570;2022-12-18T11:10:58;-5.00;53.20
3312;DHT22;1668;49.648;8.570;2022-12-18T11:13:27;-4.90;34.80
3312;DHT22;1668;49.648;8.570;2022-12-18T11:15:55;-4.90;9.00
3312;DHT22;1668;49.648;8.570;2022-12-18T11:18:26;-4.90;1.00
3312;DHT22;1668;49.648;8.570;2022-12-18T11:20:55;-4.80;4.20
3312;DHT22;1668;49.648;8.570;2022-12-18T11:23:23;-4.70;1.00
3312;DHT22;1668;49.648;8.570;2022-12-18T11:25:53;-4.70;1.00
3312;DHT22;1668;49.648;8.570;2022-12-18T11:28:35;-4.70;1.00
3312;DHT22;1668;49.648;8.570;2022-12-18T11:31:20;-4.80;1.00
3312;DHT22;1668;49.648;8.570;2022-12-18T11:33:55;-4.80;1.00
3312;DHT22;1668;49.648;8.570;2022-12-18T11:36:23;-4.80;1.00
3312;DHT22;1668;49.648;8.570;2022-12-18T11:38:53;-4.70;1.00
3312;DHT22;1668;49.648;8.570;2022-12-18T11:41:25;-4.60;1.00
3312;DHT22;1668;49.648;8.570;2022-12-18T11:44:21;-4.50;1.00
3312;DHT22;1668;49.648;8.570;2022-12-18T11:46:55;-4.40;1.00
3312;DHT22;1668;49.648;8.570;2022-12-18T11:49:26;-4.30;1.00
3312;DHT22;1668;49.648;8.570;2022-12-18T11:52:00;-4.40;1.00
3312;DHT22;1668;49.648;8.570;2022-12-18T11:54:30;-4.30;1.00
3312;DHT22;1668;49.648;8.570;2022-12-18T11:57:02;-4.20;1.00
3312;DHT22;1668;49.648;8.570;2022-12-18T11:59:38;-4.30;1.00
3312;DHT22;1668;49.648;8.570;2022-12-18T12:02:22;-4.30;1.00
3312;DHT22;1668;49.648;8.570;2022-12-18T12:05:12;-4.30;1.00
3312;DHT22;1668;49.648;8.570;2022-12-18T12:07:47;-4.20;1.00
3312;DHT22;1668;49.648;8.570;2022-12-18T12:10:27;-4.10;1.00
3312;DHT22;1668;49.648;8.570;2022-12-18T12:13:11;-4.00;1.00
3312;DHT22;1668;49.648;8.570;2022-12-18T12:15:46;-3.90;1.00
3312;DHT22;1668;49.648;8.570;2022-12-18T12:18:23;-3.90;1.00
3312;DHT22;1668;49.648;8.570;2022-12-18T12:21:00;-3.90;1.00
3312;DHT22;1668;49.648;8.570;2022-12-18T12:23:37;-3.80;1.00
3312;DHT22;1668;49.648;8.570;2022-12-18T12:26:09;-3.80;1.00
3312;DHT22;1668;49.648;8.570;2022-12-18T12:29:16;-3.80;1.00
3312;DHT22;1668;49.648;8.570;2022-12-18T12:31:55;-3.60;1.00
3312;DHT22;1668;49.648;8.570;2022-12-18T12:34:29;-3.60;1.00
3312;DHT22;1668;49.648;8.570;2022-12-18T12:37:11;-3.60;1.00
3312;DHT22;1668;49.648;8.570;2022-12-18T12:39:42;-3.50;1.00
3312;DHT22;1668;49.648;8.570;2022-12-18T12:42:15;-3.40;1.00
3312;DHT22;1668;49.648;8.570;2022-12-18T12:45:18;-3.40;1.00
3312;DHT22;1668;49.648;8.570;2022-12-18T12:47:49;-3.50;1.00
3312;DHT22;1668;49.648;8.570;2022-12-18T12:50:19;-3.40;1.00
3312;DHT22;1668;49.648;8.570;2022-12-18T12:52:48;-3.40;1.00
3312;DHT22;1668;49.648;8.570;2022-12-18T12:55:20;-3.40;1.00
3312;DHT22;1668;49.648;8.570;2022-12-18T13:00:40;-3.40;1.00
3312;DHT22;1668;49.648;8.570;2022-12-18T13:03:18;-3.50;1.00
3312;DHT22;1668;49.648;8.570;2022-12-18T13:05:53;-3.60;1.00
3312;DHT22;1668;49.648;8.570;2022-12-18T13:08:24;-3.60;1.00
3312;DHT22;1668;49.648;8.570;2022-12-18T13:10:52;-3.50;1.00
3312;DHT22;1668;49.648;8.570;2022-12-18T13:13:49;-3.60;1.00
3312;DHT22;1668;49.648;8.570;2022-12-18T13:16:18;-3.60;1.00
3312;DHT22;1668;49.648;8.570;2022-12-18T13:18:50;-3.60;1.00
3312;DHT22;1668;49.648;8.570;2022-12-18T13:21:21;-3.60;1.00
3312;DHT22;1668;49.648;8.570;2022-12-18T13:23:50;-3.70;1.00
3312;DHT22;1668;49.648;8.570;2022-12-18T13:26:30;-3.70;1.00
3312;DHT22;1668;49.648;8.570;2022-12-18T13:28:58;-3.80;1.00
3312;DHT22;1668;49.648;8.570;2022-12-18T13:34:35;-3.80;1.00
3312;DHT22;1668;49.648;8.570;2022-12-18T13:43:37;-3.80;1.00
3312;DHT22;1668;49.648;8.570;2022-12-18T13:46:18;-3.70;1.00
3312;DHT22;1668;49.648;8.570;2022-12-18T13:48:52;-3.80;1.00
3312;DHT22;1668;49.648;8.570;2022-12-18T13:51:21;-3.80;1.00
3312;DHT22;1668;49.648;8.570;2022-12-18T13:53:51;-3.80;1.00
3312;DHT22;1668;49.648;8.570;2022-12-18T13:56:23;-3.70;1.00
3312;DHT22;1668;49.648;8.570;2022-12-18T13:59:11;-3.80;1.00
3312;DHT22;1668;49.648;8.570;2022-12-18T14:01:45;-3.80;1.00
3312;DHT22;1668;49.648;8.570;2022-12-18T14:04:19;-3.80;1.00
3312;DHT22;1668;49.648;8.570;2022-12-18T14:06:50;-3.80;1.00
3312;DHT22;1668;49.648;8.570;2022-12-18T14:09:20;-3.80;1.00
3312;DHT22;1668;49.648;8.570;2022-12-18T14:11:48;-3.90;1.00
3312;DHT22;1668;49.648;8.570;2022-12-18T14:14:16;-3.90;1.00
3312;DHT22;1668;49.648;8.570;2022-12-18T14:16:43;-3.90;1.00
3312;DHT22;1668;49.648;8.570;2022-12-18T14:19:14;-3.90;1.00
3312;DHT22;1668;49.648;8.570;2022-12-18T14:21:47;-3.90;1.00
3312;DHT22;1668;49.648;8.570;2022-12-18T14:24:16;-3.90;1.00
3312;DHT22;1668;49.648;8.570;2022-12-18T14:26:44;-3.90;1.00
3312;DHT22;1668;49.648;8.570;2022-12-18T14:29:23;-4.00;1.00
3312;DHT22;1668;49.648;8.570;2022-12-18T14:32:07;-4.00;1.00
3312;DHT22;1668;49.648;8.570;2022-12-18T14:34:35;-4.00;1.00
3312;DHT22;1668;49.648;8.570;2022-12-18T14:37:04;-4.00;1.00
3312;DHT22;1668;49.648;8.570;2022-12-18T14:39:32;-4.00;18.60
3312;DHT22;1668;49.648;8.570;2022-12-18T14:41:59;-4.00;1.60
3312;DHT22;1668;49.648;8.570;2022-12-18T14:44:25;-4.00;12.90
3312;DHT22;1668;49.648;8.570;2022-12-18T14:46:52;-4.00;66.30
3312;DHT22;1668;49.648;8.570;2022-12-18T14:49:21;-4.00;23.10
3312;DHT22;1668;49.648;8.570;2022-12-18T14:51:51;-4.00;33.00
3312;DHT22;1668;49.648;8.570;2022-12-18T14:54:21;-4.10;26.70
3312;DHT22;1668;49.648;8.570;2022-12-18T14:56:50;-4.10;33.10
3312;DHT22;1668;49.648;8.570;2022-12-18T14:59:20;-4.10;38.80
3312;DHT22;1668;49.648;8.570;2022-12-18T15:01:56;-4.10;53.50
3312;DHT22;1668;49.648;8.570;2022-12-18T15:04:26;-4.10;71.80
3312;DHT22;1668;49.648;8.570;2022-12-18T15:07:07;-4.10;86.40
3312;DHT22;1668;49.648;8.570;2022-12-18T15:09:37;-4.20;99.90
3312;DHT22;1668;49.648;8.570;2022-12-18T15:12:04;-4.20;99.90
3312;DHT22;1668;49.648;8.570;2022-12-18T15:14:34;-4.30;99.90
3312;DHT22;1668;49.648;8.570;2022-12-18T15:17:04;-4.30;99.90
3312;DHT22;1668;49.648;8.570;2022-12-18T15:19:39;-4.30;99.90
3312;DHT22;1668;49.648;8.570;2022-12-18T15:22:19;-4.30;99.90
3312;DHT22;1668;49.648;8.570;2022-12-18T15:24:48;-4.40;99.90
3312;DHT22;1668;49.648;8.570;2022-12-18T15:27:27;-4.30;99.90
3312;DHT22;1668;49.648;8.570;2022-12-18T15:30:19;-4.40;99.90
3312;DHT22;1668;49.648;8.570;2022-12-18T15:32:47;-4.40;99.90
3312;DHT22;1668;49.648;8.570;2022-12-18T15:35:18;-4.50;99.90
3312;DHT22;1668;49.648;8.570;2022-12-18T15:37:45;-4.50;99.90
3312;DHT22;1668;49.648;8.570;2022-12-18T15:40:15;-4.50;99.90
3312;DHT22;1668;49.648;8.570;2022-12-18T15:42:42;-4.60;99.90
3312;DHT22;1668;49.648;8.570;2022-12-18T15:45:28;-4.60;99.90
3312;DHT22;1668;49.648;8.570;2022-12-18T15:47:55;-4.60;99.90
3312;DHT22;1668;49.648;8.570;2022-12-18T15:50:22;-4.60;99.90
3312;DHT22;1668;49.648;8.570;2022-12-18T15:52:50;-4.60;99.90
3312;DHT22;1668;49.648;8.570;2022-12-18T15:55:20;-4.60;99.90
3312;DHT22;1668;49.648;8.570;2022-12-18T15:58:05;-4.70;99.90
3312;DHT22;1668;49.648;8.570;2022-12-18T16:00:32;-4.70;99.90
3312;DHT22;1668;49.648;8.570;2022-12-18T16:03:00;-4.70;99.90
3312;DHT22;1668;49.648;8.570;2022-12-18T16:05:29;-4.60;99.90
3312;DHT22;1668;49.648;8.570;2022-12-18T16:07:56;-4.60;99.90
3312;DHT22;1668;49.648;8.570;2022-12-18T16:10:25;-4.70;99.90
3312;DHT22;1668;49.648;8.570;2022-12-18T16:12:52;-4.60;99.90
3312;DHT22;1668;49.648;8.570;2022-12-18T16:15:19;-4.70;99.90
3312;DHT22;1668;49.648;8.570;2022-12-18T16:17:46;-4.70;99.90
3312;DHT22;1668;49.648;8.570;2022-12-18T16:20:14;-4.70;99.90
3312;DHT22;1668;49.648;8.570;2022-12-18T16:22:42;-4.70;99.90
3312;DHT22;1668;49.648;8.570;2022-12-18T16:25:17;-4.70;99.90
3312;DHT22;1668;49.648;8.570;2022-12-18T16:27:45;-4.60;99.90
3312;DHT22;1668;49.648;8.570;2022-12-18T16:30:13;-4.60;99.90
3312;DHT22;1668;49.648;8.570;2022-12-18T16:32:40;-4.60;99.90
3312;DHT22;1668;49.648;8.570;2022-12-18T16:35:10;-4.60;99.90
3312;DHT22;1668;49.648;8.570;2022-12-18T16:37:36;-4.60;99.90
3312;DHT22;1668;49.648;8.570;2022-12-18T16:40:04;-4.60;99.90